Flight Track Log - Related Links

Times and Time Zones

All times are in EDT time to prevent confusion due to time zone crossing. See the TRS501 flight status page for this flight to view local times or setup timezone preferences in your user account.


Time Position Orientation Groundspeed Altitude Reporting Facility
EDT Latitude Longitude Course Direction KTS MPH feet Rate Location/Type
Mon 09:37:15 AM 33.6500 -84.3667 76° East 187 215 2,500  Level Atlanta TRACON
Mon 09:38:15 AM 33.6667 -84.2833 76° East 269 310 5,700 3,350 Climbing Atlanta TRACON
Mon 09:39:15 AM 33.7000 -84.2000 64° Northeast 299 344 9,200 2,150 Climbing Atlanta TRACON
Mon 09:40:15 AM 33.7833 -84.1833 North 299 344 10,000 713 Climbing Atlanta TRACON
Mon 09:41:55 AM 33.9025 -84.2364 340° North 308 354 11,100 1,725 Climbing Atlanta Center
Mon 09:42:55 AM 33.9881 -84.2792 337° Northwest 308 354 14,600 3,350 Climbing Atlanta Center
Mon 09:43:55 AM 34.0944 -84.2797 360° North 328 377 17,800 2,950 Climbing Atlanta Center
Mon 09:44:55 AM 34.1947 -84.2800 360° North 382 440 20,500 2,700 Climbing Atlanta Center
Mon 09:45:55 AM 34.3033 -84.2778 North 387 445 23,200 2,400 Climbing Atlanta Center
Mon 09:46:55 AM 34.4286 -84.2503 10° North 400 460 25,300 2,050 Climbing Atlanta Center
Mon 09:47:55 AM 34.5497 -84.2228 11° North 424 488 27,300 2,050 Climbing Atlanta Center
Mon 09:48:55 AM 34.6686 -84.1928 12° North 443 510 29,400 1,850 Climbing Atlanta Center
Mon 09:49:55 AM 34.7939 -84.1653 10° North 443 510 31,000 800 Climbing Atlanta Center
Mon 09:50:55 AM 34.9233 -84.1350 11° North 454 522 31,000  Level Atlanta Center
Mon 09:51:55 AM 35.0486 -84.1047 11° North 454 522 31,000 650 Level Atlanta Center
Mon 09:52:55 AM 35.1758 -84.0744 11° North 454 522 32,300 1,450 Climbing Atlanta Center
Mon 09:53:55 AM 35.2989 -84.0439 11° North 454 522 33,900 1,300 Climbing Atlanta Center
Mon 09:54:55 AM 35.4261 -84.0133 11° North 449 517 34,900 1,450 Climbing Atlanta Center
Mon 09:55:55 AM 35.5472 -83.9825 12° North 449 517 36,800 1,650 Climbing Atlanta Center
Mon 09:56:55 AM 35.6681 -83.9544 11° North 449 517 38,200 1,000 Climbing Atlanta Center
Mon 09:57:55 AM 35.7892 -83.9236 12° North 449 517 38,800 400 Climbing Atlanta Center
Mon 09:58:55 AM 35.9122 -83.8875 13° North 449 517 39,000 67 Climbing Atlanta Center
Mon 10:00:55 AM 36.1417 -83.7428 27° Northeast 459 528 39,000  Level Indianapolis Center
Mon 10:01:57 AM 36.2567 -83.6731 26° Northeast 459 528 39,000  Level Indianapolis Center
Mon 10:02:59 AM 36.3692 -83.6000 28° Northeast 458 527 39,000  Level Indianapolis Center
Mon 10:04:02 AM 36.4842 -83.5275 27° Northeast 462 532 39,000  Level Indianapolis Center
Mon 10:05:04 AM 36.6122 -83.4450 27° Northeast 463 533 39,000  Level Indianapolis Center
Mon 10:06:06 AM 36.7269 -83.3708 27° Northeast 462 532 39,000  Level Indianapolis Center
Mon 10:07:08 AM 36.8417 -83.2975 27° Northeast 461 531 39,000  Level Indianapolis Center
Mon 10:08:10 AM 36.9572 -83.2219 28° Northeast 463 533 39,000  Level Indianapolis Center
Mon 10:09:12 AM 37.0717 -83.1475 27° Northeast 458 527 39,000  Level Indianapolis Center
Mon 10:10:14 AM 37.1853 -83.0725 28° Northeast 457 526 39,000  Level Indianapolis Center
Mon 10:11:16 AM 37.3164 -82.9867 27° Northeast 453 521 39,000  Level Indianapolis Center
Mon 10:12:18 AM 37.4286 -82.9119 28° Northeast 454 522 39,000  Level Indianapolis Center
Mon 10:13:20 AM 37.5406 -82.8394 27° Northeast 450 518 39,000  Level Indianapolis Center
Mon 10:14:22 AM 37.6525 -82.7644 28° Northeast 452 520 39,000  Level Indianapolis Center
Mon 10:15:24 AM 37.7636 -82.6889 28° Northeast 451 519 39,000  Level Indianapolis Center
Mon 10:16:26 AM 37.8758 -82.6150 27° Northeast 453 521 39,000  Level Indianapolis Center
Mon 10:17:28 AM 38.0072 -82.5261 28° Northeast 456 525 39,000  Level Indianapolis Center
Mon 10:18:30 AM 38.1194 -82.4519 27° Northeast 455 524 39,000  Level Indianapolis Center
Mon 10:19:32 AM 38.2167 -82.3850 28° Northeast 453 521 39,000  Level Indianapolis Center
Mon 10:20:34 AM 38.3503 -82.2939 28° Northeast 453 521 39,000  Level Indianapolis Center
Mon 10:21:36 AM 38.4611 -82.2178 28° Northeast 451 519 39,000  Level Indianapolis Center
Mon 10:22:38 AM 38.5731 -82.1419 28° Northeast 452 520 39,000  Level Indianapolis Center
Mon 10:23:40 AM 38.6836 -82.0653 28° Northeast 449 517 39,000  Level Indianapolis Center
Mon 10:24:42 AM 38.7964 -81.9889 28° Northeast 452 520 39,000  Level Indianapolis Center
Mon 10:25:44 AM 38.9097 -81.9106 28° Northeast 456 525 39,000  Level Indianapolis Center
Mon 10:26:47 AM 39.0217 -81.8328 28° Northeast 454 522 39,000  Level Indianapolis Center
Mon 10:27:49 AM 39.1342 -81.7547 28° Northeast 456 525 39,000  Level Indianapolis Center
Mon 10:28:51 AM 39.2467 -81.6753 29° Northeast 457 526 39,000  Level Indianapolis Center
Mon 10:29:53 AM 39.3792 -81.5825 28° Northeast 450 518 39,000  Level Indianapolis Center
Mon 10:30:55 AM 39.4892 -81.5053 28° Northeast 447 514 39,000  Level Indianapolis Center
Mon 10:31:57 AM 39.5992 -81.4281 28° Northeast 447 514 39,000 -48 Level Indianapolis Center
Mon 10:32:59 AM 39.7081 -81.3500 29° Northeast 446 513 38,900 -550 Descending Indianapolis Center
Mon 10:33:57 AM 39.8233 -81.2669 29° Northeast 448 516 37,900 -1,017 Descending Cleveland Center
Mon 10:34:57 AM 39.9322 -81.1894 29° Northeast 438 504 36,900 -950 Descending Cleveland Center
Mon 10:35:57 AM 40.0431 -81.1119 28° Northeast 438 504 36,000 -950 Descending Cleveland Center
Mon 10:36:57 AM 40.1475 -81.0367 29° Northeast 438 504 35,000 -950 Descending Cleveland Center
Mon 10:37:57 AM 40.2519 -80.9558 31° Northeast 438 504 34,100 -1,250 Descending Cleveland Center
Mon 10:38:57 AM 40.3586 -80.8828 28° Northeast 433 498 32,500 -1,550 Descending Cleveland Center
Mon 10:39:57 AM 40.4631 -80.8069 29° Northeast 433 498 31,000 -750 Descending Cleveland Center
Mon 10:40:57 AM 40.5528 -80.7417 29° Northeast 426 490 31,000  Level Cleveland Center
Mon 10:41:57 AM 40.6611 -80.6597 30° Northeast 408 470 31,000  Level Cleveland Center
Mon 10:42:57 AM 40.7614 -80.5858 29° Northeast 403 464 31,000  Level Cleveland Center
Mon 10:43:57 AM 40.8508 -80.5200 29° Northeast 403 464 31,000 -550 Level Cleveland Center
Mon 10:44:57 AM 40.9531 -80.4456 29° Northeast 403 464 29,900 -1,050 Descending Cleveland Center
Mon 10:45:57 AM 41.0508 -80.3739 29° Northeast 403 464 28,900 -1,000 Descending Cleveland Center
Mon 10:46:57 AM 41.1467 -80.3019 29° Northeast 398 458 27,900 -1,000 Descending Cleveland Center
Mon 10:47:57 AM 41.2464 -80.2297 29° Northeast 398 458 26,900 -1,000 Descending Cleveland Center
Mon 10:48:57 AM 41.3422 -80.1544 31° Northeast 398 458 25,900 -1,000 Descending Cleveland Center
Mon 10:49:57 AM 41.4378 -80.0844 29° Northeast 398 458 24,900 -950 Descending Cleveland Center
Mon 10:50:57 AM 41.5292 -80.0144 30° Northeast 393 452 24,000 -450 Descending Cleveland Center
Mon 10:51:57 AM 41.6267 -79.9414 29° Northeast 379 436 24,000  Level Cleveland Center
Mon 10:52:57 AM 41.7222 -79.8681 30° Northeast 379 436 24,000  Level Cleveland Center
Mon 10:53:57 AM 41.8114 -79.8003 30° Northeast 374 430 24,000  Level Cleveland Center
Mon 10:54:57 AM 41.9047 -79.7294 29° Northeast 374 430 24,000 -750 Level Cleveland Center
Mon 10:55:57 AM 41.9958 -79.6611 29° Northeast 374 430 22,500 -1,750 Descending Cleveland Center
Mon 10:56:57 AM 42.0869 -79.5900 30° Northeast 374 430 20,500 -2,000 Descending Cleveland Center
Mon 10:57:57 AM 42.1761 -79.5214 30° Northeast 369 425 18,500 -2,000 Descending Cleveland Center
Mon 10:58:57 AM 42.2608 -79.4553 30° Northeast 364 419 16,500 -2,000 Descending Cleveland Center
Mon 10:59:57 AM 42.3436 -79.3892 31° Northeast 354 407 14,500 -1,950 Descending Cleveland Center
Mon 11:00:57 AM 42.4264 -79.3258 29° Northeast 347 399 12,600 -1,850 Descending Cleveland Center
Mon 11:01:57 AM 42.5111 -79.2594 30° Northeast 347 399 10,800 -1,300 Descending Cleveland Center
Mon 11:02:57 AM 42.5853 -79.1986 31° Northeast 332 382 10,000 -1,250 Descending Cleveland Center
Mon 11:03:57 AM 42.6494 -79.1492 30° Northeast 305 351 8,300 -1,600 Descending Cleveland Center
Mon 11:04:57 AM 42.7278 -79.0853 31° Northeast 300 345 6,800 -1,400 Descending Cleveland Center
Mon 11:05:57 AM 42.7978 -79.0325 29° Northeast 288 331 5,500 -900 Descending Cleveland Center
Mon 11:06:57 AM 42.8617 -78.9772 32° Northeast 288 331 5,000 -597 Descending Cleveland Center
Mon 11:09:08 AM 42.9833 -78.8333 41° Northeast 274 315 3,600 -660 Descending Buffalo TRACON
Mon 11:10:08 AM 43.0500 -78.7667 36° Northeast 251 289 2,900 -700 Descending Buffalo TRACON
Mon 11:11:08 AM 43.0500 -78.7000 90° East 184 212 2,200 -350 Descending Buffalo TRACON
Mon 11:12:08 AM 43.0167 -78.6667 144° Southeast 148 170 2,200 -200 Level Buffalo TRACON
Mon 11:13:08 AM 42.9833 -78.6667 180° South 115 132 1,800 -550 Descending Buffalo TRACON
Mon 11:14:08 AM 42.9500 -78.7000 216° Southwest 127 146 1,100 -700 Descending Buffalo TRACON

Login

Don't have an account? Register now (free) for customized features, flight alerts, and more!